Time;durP1;ratioP1;P1;durP2;ratioP2;P2;SDS_P1;SDS_P2;PMS_P1;PMS_P2;Temp;Humidity;BMP_temperature;BMP_pressure;BME280_temperature;BME280_humidity;BME280_pressure;Samples;Min_cycle;Max_cycle;Signal;HPM_P1;HPM_P2
2022/12/31 00:00:37;;;;;;;7.45;1.98;;;15.20;99.90;;;;;;5040023;28;20424;-70
2022/12/31 00:03:03;;;;;;;9.13;2.25;;;15.10;99.90;;;;;;5058149;28;20021;-70
2022/12/31 00:05:31;;;;;;;7.75;1.73;;;15.10;99.90;;;;;;5058353;28;20041;-70
2022/12/31 00:07:57;;;;;;;8.85;1.85;;;15.10;99.90;;;;;;5058197;28;20033;-70
2022/12/31 00:10:22;;;;;;;7.32;1.70;;;15.10;99.90;;;;;;5057577;28;20560;-70
2022/12/31 00:12:48;;;;;;;9.05;2.42;;;15.10;99.90;;;;;;5040153;28;20064;-70
2022/12/31 00:15:14;;;;;;;8.32;1.60;;;15.10;99.90;;;;;;5057939;28;20029;-70
2022/12/31 00:17:40;;;;;;;10.95;1.92;;;15.10;99.90;;;;;;5057949;28;20025;-70
2022/12/31 00:20:06;;;;;;;6.93;1.55;;;15.10;99.90;;;;;;5057387;28;20115;-70
2022/12/31 00:22:32;;;;;;;5.63;1.58;;;15.00;99.90;;;;;;5058028;28;20036;-70
2022/12/31 00:24:58;;;;;;;11.48;1.70;;;15.10;99.90;;;;;;5039613;28;20047;-70
2022/12/31 00:27:23;;;;;;;8.55;1.85;;;15.10;99.90;;;;;;5057867;28;20033;-70
2022/12/31 00:29:49;;;;;;;7.50;1.30;;;15.10;99.90;;;;;;5057646;28;20025;-70
2022/12/31 00:32:14;;;;;;;6.30;1.35;;;15.10;99.90;;;;;;5057750;28;20032;-70
2022/12/31 00:34:40;;;;;;;9.35;1.77;;;15.10;99.90;;;;;;5039668;28;20052;-70
2022/12/31 00:37:05;;;;;;;8.07;1.80;;;15.10;99.90;;;;;;5057605;28;20028;-70
2022/12/31 00:39:31;;;;;;;6.30;1.83;;;15.20;99.90;;;;;;5057840;28;20028;-70
2022/12/31 00:41:57;;;;;;;12.40;2.30;;;15.30;99.90;;;;;;5039761;28;20386;-70
2022/12/31 00:44:22;;;;;;;8.38;1.65;;;15.30;99.90;;;;;;5057850;28;20033;-70
2022/12/31 00:46:48;;;;;;;10.23;1.92;;;15.30;99.90;;;;;;5057485;28;20100;-70
2022/12/31 00:49:14;;;;;;;9.75;1.60;;;15.40;99.90;;;;;;5057479;28;20421;-70
2022/12/31 00:51:40;;;;;;;9.95;1.58;;;15.40;99.90;;;;;;5057622;28;20075;-70
2022/12/31 00:54:05;;;;;;;6.47;1.75;;;15.50;99.90;;;;;;5039593;28;20021;-70
2022/12/31 00:56:31;;;;;;;7.65;1.88;;;15.50;99.90;;;;;;5038912;28;20025;-70
2022/12/31 00:58:58;;;;;;;11.43;2.20;;;15.50;99.90;;;;;;5057455;28;20427;-71
2022/12/31 01:01:27;;;;;;;10.30;1.92;;;15.50;99.90;;;;;;5039214;28;20021;-70
2022/12/31 01:03:56;;;;;;;7.50;1.30;;;15.50;99.90;;;;;;5039308;28;20032;-70
2022/12/31 01:06:22;;;;;;;7.57;1.27;;;15.60;99.90;;;;;;5057286;28;20021;-70
2022/12/31 01:08:48;;;;;;;8.45;1.63;;;15.60;99.90;;;;;;5057350;28;20036;-70
2022/12/31 01:11:17;;;;;;;7.53;1.52;;;15.60;99.90;;;;;;5056862;28;20044;-70
2022/12/31 01:13:49;;;;;;;6.82;1.42;;;15.70;99.90;;;;;;5039193;28;20470;-70
2022/12/31 01:16:16;;;;;;;11.52;1.98;;;15.70;99.90;;;;;;5057171;28;20075;-70
2022/12/31 01:18:42;;;;;;;6.75;1.33;;;15.80;99.90;;;;;;5057005;28;20025;-71
2022/12/31 01:21:10;;;;;;;6.22;1.33;;;15.80;99.90;;;;;;5039171;28;20399;-71
2022/12/31 01:23:36;;;;;;;8.40;1.60;;;15.80;99.90;;;;;;5039062;28;20097;-71
2022/12/31 01:26:04;;;;;;;7.85;1.30;;;15.80;99.90;;;;;;5056930;28;20017;-71
2022/12/31 01:28:30;;;;;;;8.75;1.85;;;15.80;99.90;;;;;;5038975;28;20032;-70
2022/12/31 01:30:56;;;;;;;6.45;1.40;;;15.80;99.90;;;;;;5057043;28;20493;-71
2022/12/31 01:33:22;;;;;;;6.57;1.50;;;15.80;99.90;;;;;;5056820;28;20111;-70
2022/12/31 01:35:48;;;;;;;6.30;1.30;;;15.90;99.90;;;;;;5040053;28;20374;-71
2022/12/31 01:38:14;;;;;;;12.02;2.33;;;15.90;99.90;;;;;;5056931;28;20080;-70
2022/12/31 01:40:40;;;;;;;10.63;1.75;;;15.90;99.90;;;;;;5056649;28;20029;-70
2022/12/31 01:43:15;;;;;;;9.07;1.42;;;15.90;99.90;;;;;;5056930;28;20017;-70
2022/12/31 01:45:43;;;;;;;9.30;1.42;;;15.90;99.90;;;;;;5056945;28;20581;-71
2022/12/31 01:48:12;;;;;;;6.97;1.52;;;15.90;99.90;;;;;;5056655;28;20497;-71
2022/12/31 01:50:40;;;;;;;5.75;1.20;;;15.90;99.90;;;;;;5056830;28;20033;-70
2022/12/31 01:53:09;;;;;;;5.72;1.20;;;15.80;99.90;;;;;;5038791;28;20032;-70
2022/12/31 01:55:49;;;;;;;6.45;1.30;;;15.70;99.90;;;;;;5056509;28;20044;-71
2022/12/31 01:58:21;;;;;;;8.60;1.83;;;15.70;99.90;;;;;;5056794;28;20049;-71
2022/12/31 02:00:48;;;;;;;7.03;1.48;;;15.60;99.90;;;;;;5038615;28;20814;-70
2022/12/31 02:03:14;;;;;;;6.85;1.33;;;15.40;99.90;;;;;;5056731;28;20021;-71
2022/12/31 02:06:03;;;;;;;5.22;1.30;;;15.50;99.90;;;;;;5038727;28;20013;-72
2022/12/31 02:08:29;;;;;;;5.57;1.27;;;15.40;99.90;;;;;;5038771;28;20021;-70
2022/12/31 02:10:55;;;;;;;9.48;1.45;;;15.50;99.90;;;;;;5041770;28;20117;-70
2022/12/31 02:13:20;;;;;;;6.50;1.10;;;15.50;99.90;;;;;;5060385;28;20037;-70
2022/12/31 02:16:16;;;;;;;7.70;1.42;;;15.50;99.90;;;;;;5042222;28;20115;-70
2022/12/31 02:18:48;;;;;;;5.22;1.65;;;15.50;99.90;;;;;;5060554;28;20070;-70
2022/12/31 02:21:33;;;;;;;;;;;15.60;99.90;;;;;;5060734;28;20104;-71
2022/12/31 02:24:16;;;;;;;6.55;1.55;;;15.60;99.90;;;;;;5042008;28;19909;-71
2022/12/31 02:27:04;;;;;;;8.87;1.80;;;15.70;99.90;;;;;;5040614;28;20469;-70
2022/12/31 02:29:51;;;;;;;6.53;1.27;;;15.70;99.90;;;;;;5042106;28;20025;-70
2022/12/31 02:32:24;;;;;;;7.32;1.48;;;15.80;99.90;;;;;;5059944;28;20021;-70
2022/12/31 02:35:13;;;;;;;9.93;2.03;;;15.80;99.90;;;;;;5060132;28;20021;-71
2022/12/31 02:37:42;;;;;;;6.55;1.45;;;15.90;99.90;;;;;;5059835;28;20048;-72
2022/12/31 02:40:13;;;;;;;11.15;1.67;;;15.90;99.90;;;;;;5059372;28;20121;-70
2022/12/31 02:42:39;;;;;;;7.22;1.52;;;15.90;99.90;;;;;;5060040;28;20523;-70
2022/12/31 02:45:06;;;;;;;7.72;1.40;;;16.00;99.90;;;;;;5059746;28;20021;-71
2022/12/31 02:47:57;;;;;;;7.55;1.50;;;16.00;99.90;;;;;;5059772;28;20013;-70
2022/12/31 02:50:32;;;;;;;6.22;1.65;;;16.00;99.90;;;;;;5059848;28;20362;-70
2022/12/31 02:53:49;;;;;;;7.47;1.67;;;16.00;99.90;;;;;;5059488;28;20025;-70
2022/12/31 02:57:03;;;;;;;9.25;2.15;;;16.00;99.90;;;;;;5054067;28;20041;-71
2022/12/31 03:02:47;;;;;;;6.88;1.55;;;16.00;99.90;;;;;;5059329;28;20113;-71
2022/12/31 03:05:14;;;;;;;8.13;1.70;;;16.10;99.90;;;;;;5059374;28;20025;-71
2022/12/31 03:07:41;;;;;;;6.88;1.50;;;16.10;99.90;;;;;;5059116;28;20024;-71
2022/12/31 03:10:07;;;;;;;6.78;2.00;;;16.10;99.90;;;;;;5041022;28;20025;-70
2022/12/31 03:12:46;;;;;;;7.82;1.88;;;;;;;;;;5059142;28;20029;-70
2022/12/31 03:15:20;;;;;;;8.48;1.67;;;16.10;99.90;;;;;;5059172;28;20025;-70
2022/12/31 03:18:08;;;;;;;7.53;1.50;;;16.20;99.90;;;;;;5059150;28;20017;-70
2022/12/31 03:23:26;;;;;;;5.78;1.40;;;16.20;99.90;;;;;;5059381;28;20068;-70
2022/12/31 03:25:53;;;;;;;8.50;2.05;;;16.40;99.90;;;;;;5058814;28;20032;-70
2022/12/31 03:28:22;;;;;;;7.75;1.40;;;16.30;99.90;;;;;;5059111;28;20020;-70
2022/12/31 03:30:54;;;;;;;8.38;1.75;;;16.40;99.90;;;;;;5058998;28;20035;-70
2022/12/31 03:33:22;;;;;;;9.27;1.93;;;;;;;;;;5058693;28;20025;-70
2022/12/31 03:35:48;;;;;;;5.63;1.42;;;;;;;;;;5058788;28;20021;-70
2022/12/31 03:38:15;;;;;;;8.00;1.88;;;;;;;;;;5058796;28;20401;-70
2022/12/31 03:40:44;;;;;;;6.80;1.33;;;16.40;99.90;;;;;;5058445;28;20032;-70
2022/12/31 03:43:10;;;;;;;7.00;1.38;;;16.50;99.90;;;;;;5058624;28;20027;-70
2022/12/31 03:45:36;;;;;;;6.32;1.50;;;16.50;99.90;;;;;;5058952;28;20092;-70
2022/12/31 03:48:03;;;;;;;7.90;1.60;;;;;;;;;;5040393;28;20501;-70
2022/12/31 03:50:29;;;;;;;6.50;1.50;;;16.40;99.90;;;;;;5058547;28;20873;-70
2022/12/31 03:52:55;;;;;;;5.25;1.25;;;16.50;99.90;;;;;;5058393;28;20107;-71
2022/12/31 03:55:21;;;;;;;7.07;1.58;;;;;;;;;;5040246;28;20112;-70
2022/12/31 03:57:47;;;;;;;9.32;1.38;;;;;;;;;;5058509;28;20128;-70
2022/12/31 04:00:15;;;;;;;4.80;1.30;;;;;;;;;;5040402;28;20021;-70
2022/12/31 04:02:41;;;;;;;6.75;1.33;;;;;;;;;;5057963;28;20021;-70
2022/12/31 04:05:08;;;;;;;8.90;1.33;;;;;;;;;;5058209;28;20021;-70
2022/12/31 04:07:34;;;;;;;5.88;1.35;;;;;;;;;;5040163;28;20025;-70
2022/12/31 04:10:00;;;;;;;6.18;1.08;;;;;;;;;;5057784;28;20425;-71
2022/12/31 04:12:26;;;;;;;4.55;1.65;;;;;;;;;;5040116;28;20036;-71
2022/12/31 04:14:53;;;;;;;8.25;1.38;;;;;;;;;;5058196;28;20056;-71
2022/12/31 04:17:19;;;;;;;4.20;1.40;;;16.70;99.90;;;;;;5057801;28;20029;-70
2022/12/31 04:19:44;;;;;;;7.47;1.35;;;16.80;99.90;;;;;;5057940;28;20103;-70
2022/12/31 04:22:10;;;;;;;7.38;1.52;;;16.80;99.90;;;;;;5057880;28;20041;-70
2022/12/31 04:24:36;;;;;;;8.70;1.45;;;16.70;99.90;;;;;;5057770;28;20060;-70
2022/12/31 04:27:02;;;;;;;6.63;1.70;;;16.70;99.90;;;;;;5057701;28;20397;-70
2022/12/31 04:29:27;;;;;;;8.48;1.67;;;16.70;99.90;;;;;;5057800;28;20032;-70
2022/12/31 04:31:53;;;;;;;7.88;1.42;;;16.70;99.90;;;;;;5056908;28;20103;-70
2022/12/31 04:34:19;;;;;;;5.78;1.75;;;;;;;;;;5057766;28;20103;-70
2022/12/31 04:36:50;;;;;;;6.70;1.80;;;;;;;;;;5057510;28;20025;-70
2022/12/31 04:39:16;;;;;;;5.25;1.30;;;;;;;;;;5057536;28;20115;-70
2022/12/31 04:41:42;;;;;;;6.60;1.42;;;;;;;;;;5057409;28;20029;-70
2022/12/31 04:44:08;;;;;;;7.45;1.42;;;;;;;;;;5057637;28;20025;-70
2022/12/31 04:46:34;;;;;;;7.90;1.67;;;;;;;;;;5057304;28;20024;-71
2022/12/31 04:49:01;;;;;;;13.02;1.83;;;;;;;;;;5057520;28;20028;-70
2022/12/31 04:51:28;;;;;;;8.07;1.67;;;;;;;;;;5057372;28;20087;-70
2022/12/31 04:53:55;;;;;;;7.15;1.90;;;16.60;99.90;;;;;;5057626;28;20064;-70
2022/12/31 04:56:21;;;;;;;7.90;2.35;;;16.40;99.90;;;;;;5057078;28;20029;-70
2022/12/31 04:58:47;;;;;;;9.75;2.15;;;16.40;99.90;;;;;;5057457;28;20211;-70
2022/12/31 05:01:13;;;;;;;6.75;1.90;;;16.40;99.90;;;;;;5057118;28;20097;-70
2022/12/31 05:03:39;;;;;;;7.03;1.73;;;16.50;99.90;;;;;;5039337;28;20400;-70
2022/12/31 05:06:10;;;;;;;10.98;2.13;;;16.50;99.90;;;;;;5057573;28;20128;-70
2022/12/31 05:08:35;;;;;;;9.10;1.90;;;16.40;99.90;;;;;;5057706;28;20025;-70
2022/12/31 05:11:01;;;;;;;6.82;1.85;;;16.50;99.90;;;;;;5056763;28;20061;-70
2022/12/31 05:13:27;;;;;;;11.13;2.58;;;16.50;99.90;;;;;;5057312;28;20031;-70
2022/12/31 05:15:54;;;;;;;9.23;2.13;;;16.40;99.90;;;;;;5039160;28;20033;-70
2022/12/31 05:18:19;;;;;;;8.07;1.85;;;16.50;99.90;;;;;;5039224;28;20029;-70
2022/12/31 05:20:46;;;;;;;10.57;2.30;;;16.50;99.90;;;;;;5056823;28;20036;-70
2022/12/31 05:23:13;;;;;;;10.30;2.60;;;16.40;99.90;;;;;;5039136;28;20017;-70
2022/12/31 05:25:39;;;;;;;11.60;2.75;;;16.40;99.90;;;;;;5056706;28;20021;-70
2022/12/31 05:28:05;;;;;;;8.18;1.83;;;16.40;99.90;;;;;;5057181;28;20500;-70
2022/12/31 05:30:30;;;;;;;12.98;2.42;;;16.40;99.90;;;;;;5056888;28;20128;-70
2022/12/31 05:32:56;;;;;;;12.23;2.63;;;16.40;99.90;;;;;;5037840;28;20987;-69
2022/12/31 05:35:21;;;;;;;8.07;2.40;;;16.40;99.90;;;;;;5038881;28;20415;-70
2022/12/31 05:37:47;;;;;;;9.38;2.35;;;16.40;99.90;;;;;;5057107;28;20359;-70
2022/12/31 05:40:13;;;;;;;11.07;2.28;;;16.40;99.90;;;;;;5056735;28;20033;-70
2022/12/31 05:42:38;;;;;;;10.98;2.88;;;16.40;99.90;;;;;;5057082;28;20028;-70
2022/12/31 05:45:05;;;;;;;11.68;2.33;;;16.30;99.90;;;;;;5060715;28;20499;-70
2022/12/31 05:47:31;;;;;;;10.63;2.05;;;16.10;99.90;;;;;;5060955;28;20028;-70
2022/12/31 05:49:56;;;;;;;10.88;2.13;;;16.00;99.90;;;;;;5060681;28;20033;-70
2022/12/31 05:52:22;;;;;;;7.95;2.15;;;16.00;99.90;;;;;;5060785;28;20021;-70
2022/12/31 05:54:48;;;;;;;13.85;2.42;;;16.00;99.90;;;;;;5042486;28;20083;-70
2022/12/31 05:57:13;;;;;;;8.75;2.08;;;16.00;99.90;;;;;;5060827;28;20097;-70
2022/12/31 05:59:39;;;;;;;7.53;2.42;;;15.90;99.90;;;;;;5060471;28;20025;-70
2022/12/31 06:02:05;;;;;;;8.63;1.98;;;16.00;99.90;;;;;;5060619;28;20029;-70
2022/12/31 06:04:31;;;;;;;9.25;2.00;;;15.90;99.90;;;;;;5042406;28;20029;-70
2022/12/31 06:06:56;;;;;;;10.25;1.95;;;16.00;99.90;;;;;;5060571;28;20036;-70
2022/12/31 06:09:23;;;;;;;9.57;1.98;;;16.00;99.90;;;;;;5042155;28;20489;-70
2022/12/31 06:11:49;;;;;;;9.23;2.65;;;16.10;99.90;;;;;;5060349;28;20045;-70
2022/12/31 06:14:15;;;;;;;8.85;2.05;;;16.10;99.90;;;;;;5060163;28;20032;-70
2022/12/31 06:16:41;;;;;;;9.00;1.70;;;16.20;99.90;;;;;;5060251;28;20033;-70
2022/12/31 06:19:07;;;;;;;11.07;2.10;;;16.20;99.90;;;;;;5060085;28;20489;-70
2022/12/31 06:21:33;;;;;;;8.93;1.90;;;16.20;99.90;;;;;;5060329;28;20104;-70
2022/12/31 06:23:59;;;;;;;9.25;1.85;;;16.30;99.90;;;;;;5060009;28;20110;-70
2022/12/31 06:26:25;;;;;;;6.88;1.85;;;16.30;99.90;;;;;;5042027;28;20021;-70
2022/12/31 06:28:51;;;;;;;5.85;1.73;;;16.40;99.90;;;;;;5041999;28;20092;-70
2022/12/31 06:31:17;;;;;;;10.23;1.92;;;16.40;99.90;;;;;;5060185;28;20433;-70
2022/12/31 06:33:43;;;;;;;8.82;2.10;;;16.50;99.90;;;;;;5060158;28;20025;-70
2022/12/31 06:36:13;;;;;;;8.45;1.70;;;16.50;99.90;;;;;;5045734;28;20032;-70
2022/12/31 06:38:41;;;;;;;8.35;1.65;;;16.50;99.90;;;;;;5060389;28;20036;-70
2022/12/31 06:41:12;;;;;;;8.82;2.13;;;16.50;99.90;;;;;;5059554;28;20040;-70
2022/12/31 06:43:38;;;;;;;7.35;1.80;;;16.40;99.90;;;;;;5059858;28;20024;-69
2022/12/31 06:46:07;;;;;;;7.20;1.77;;;16.40;99.90;;;;;;5059640;28;20021;-69
2022/12/31 06:48:32;;;;;;;6.25;1.70;;;16.40;99.90;;;;;;5059669;28;20533;-70
2022/12/31 06:51:24;;;;;;;7.30;1.95;;;16.30;99.90;;;;;;5041698;28;20115;-70
2022/12/31 06:53:51;;;;;;;6.35;1.77;;;16.10;99.90;;;;;;5038111;28;20048;-70
2022/12/31 06:56:21;;;;;;;6.50;1.50;;;16.00;99.90;;;;;;5058510;28;20036;-70
2022/12/31 06:58:48;;;;;;;6.10;1.55;;;15.80;99.90;;;;;;5059781;28;20053;-70
2022/12/31 07:01:13;;;;;;;4.50;1.55;;;15.70;99.90;;;;;;5059208;28;20076;-70
2022/12/31 07:03:51;;;;;;;6.43;1.30;;;15.70;99.90;;;;;;5059414;28;20508;-70
2022/12/31 07:06:46;;;;;;;8.55;2.08;;;15.60;99.90;;;;;;5059477;28;20484;-69
2022/12/31 07:09:29;;;;;;;9.20;1.80;;;15.60;99.90;;;;;;5059035;28;20017;-70
2022/12/31 07:12:25;;;;;;;5.95;2.08;;;15.60;99.90;;;;;;5058906;28;20103;-70
2022/12/31 07:15:03;;;;;;;7.07;1.70;;;15.60;99.90;;;;;;5059311;28;20037;-69
2022/12/31 07:18:05;;;;;;;7.60;1.65;;;15.70;99.90;;;;;;5059031;28;20021;-70
2022/12/31 07:20:32;;;;;;;6.97;1.60;;;15.70;99.90;;;;;;5041044;28;20124;-70
2022/12/31 07:22:57;;;;;;;8.07;1.85;;;15.60;99.90;;;;;;5041142;28;20397;-69
2022/12/31 07:25:23;;;;;;;5.93;1.80;;;15.50;99.90;;;;;;5040729;28;20025;-70
2022/12/31 07:28:15;;;;;;;10.05;1.63;;;15.50;99.90;;;;;;5041044;28;20104;-70
2022/12/31 07:31:05;;;;;;;6.80;2.05;;;15.50;99.90;;;;;;5059104;28;20103;-70
2022/12/31 07:34:19;;;;;;;7.60;2.25;;;15.50;99.90;;;;;;5058651;28;20052;-70
2022/12/31 07:37:03;;;;;;;7.60;2.00;;;15.60;99.90;;;;;;4977706;28;20474;-70
2022/12/31 07:39:38;;;;;;;6.20;1.65;;;15.60;99.90;;;;;;5035765;28;20029;-70
2022/12/31 07:42:37;;;;;;;3.83;1.13;;;15.60;99.90;;;;;;5040708;28;20120;-70
2022/12/31 07:45:23;;;;;;;8.43;1.67;;;15.70;99.90;;;;;;5058548;28;20017;-70
2022/12/31 07:47:49;;;;;;;3.58;1.40;;;15.70;99.90;;;;;;5040492;28;20029;-70
2022/12/31 07:50:17;;;;;;;9.07;1.75;;;15.70;99.90;;;;;;5040713;28;20063;-70
2022/12/31 07:52:43;;;;;;;6.75;1.73;;;15.70;99.90;;;;;;5058796;28;20170;-69
2022/12/31 07:55:09;;;;;;;6.85;1.73;;;15.80;99.90;;;;;;5058338;28;20024;-70
2022/12/31 07:57:51;;;;;;;11.95;1.90;;;15.90;99.90;;;;;;5058312;28;20501;-70
2022/12/31 08:00:17;;;;;;;8.60;2.25;;;15.90;99.90;;;;;;5058452;28;20031;-70
2022/12/31 08:03:23;;;;;;;11.68;2.33;;;15.90;99.90;;;;;;5057874;28;20144;-70
2022/12/31 08:06:07;;;;;;;6.63;1.20;;;16.00;99.90;;;;;;5058092;28;20029;-70
2022/12/31 08:09:07;;;;;;;5.10;1.38;;;16.00;99.90;;;;;;5057897;28;20028;-69
2022/12/31 08:11:48;;;;;;;8.27;1.77;;;16.00;99.90;;;;;;4972946;28;20045;-69
2022/12/31 08:14:14;;;;;;;6.28;1.52;;;16.00;99.90;;;;;;5057919;28;20371;-69
2022/12/31 08:16:40;;;;;;;8.10;1.33;;;16.10;99.90;;;;;;5058131;28;20061;-69
2022/12/31 08:19:10;;;;;;;8.55;2.00;;;16.00;99.90;;;;;;5057983;28;20438;-69
2022/12/31 08:21:57;;;;;;;7.53;1.77;;;16.10;99.90;;;;;;5039802;28;20100;-69
2022/12/31 08:24:55;;;;;;;11.48;1.95;;;16.10;99.90;;;;;;5039726;28;20079;-69
2022/12/31 08:27:29;;;;;;;9.45;1.77;;;16.10;99.90;;;;;;5058205;28;20028;-69
2022/12/31 08:30:22;;;;;;;5.20;1.20;;;16.10;99.90;;;;;;5057651;28;20017;-69
2022/12/31 08:33:04;;;;;;;9.48;2.05;;;16.10;99.90;;;;;;5054030;28;20390;-69
2022/12/31 08:35:49;;;;;;;7.35;1.63;;;16.10;99.90;;;;;;5057852;28;20104;-69
2022/12/31 08:38:38;;;;;;;7.13;1.88;;;16.20;99.90;;;;;;5039591;28;20044;-69
2022/12/31 08:41:25;;;;;;;5.80;1.88;;;16.20;99.90;;;;;;5039235;28;20025;-69
2022/12/31 08:44:11;;;;;;;6.95;1.60;;;16.20;99.90;;;;;;5057739;28;20036;-69
2022/12/31 08:46:43;;;;;;;8.43;1.73;;;16.20;99.90;;;;;;5057289;28;20035;-69
2022/12/31 08:49:09;;;;;;;11.70;2.22;;;16.20;99.90;;;;;;5057385;28;20061;-69
2022/12/31 08:51:35;;;;;;;7.00;1.50;;;16.20;99.90;;;;;;5057576;28;20029;-69
2022/12/31 08:54:01;;;;;;;4.70;1.02;;;16.10;99.90;;;;;;5057133;28;20032;-69
2022/12/31 08:56:42;;;;;;;10.30;1.40;;;16.10;99.90;;;;;;5057365;28;20111;-69
2022/12/31 08:59:29;;;;;;;8.85;1.80;;;16.10;99.90;;;;;;5057453;28;20497;-69
2022/12/31 09:02:17;;;;;;;4.82;1.30;;;16.20;99.90;;;;;;5057054;28;20025;-69
2022/12/31 09:04:54;;;;;;;7.10;1.50;;;16.10;99.90;;;;;;5057364;28;20028;-68
2022/12/31 09:07:36;;;;;;;8.95;1.55;;;16.20;99.90;;;;;;5057339;28;20040;-68
2022/12/31 09:10:02;;;;;;;7.47;1.87;;;16.10;99.90;;;;;;5038894;28;20028;-69
2022/12/31 09:12:41;;;;;;;7.90;1.70;;;16.10;99.90;;;;;;5057137;28;20351;-67
2022/12/31 09:15:25;;;;;;;7.40;2.00;;;16.10;99.90;;;;;;5057301;28;20490;-68
2022/12/31 09:17:51;;;;;;;6.32;1.35;;;16.10;99.90;;;;;;5057513;28;20509;-70
2022/12/31 09:20:26;;;;;;;9.63;2.33;;;16.10;99.90;;;;;;5061306;28;20358;-69
2022/12/31 09:22:54;;;;;;;5.55;1.60;;;16.10;99.90;;;;;;5061357;28;20025;-70
2022/12/31 09:25:21;;;;;;;7.97;1.70;;;16.10;99.90;;;;;;5061026;28;20017;-70
2022/12/31 09:27:52;;;;;;;9.65;1.70;;;16.10;99.90;;;;;;5061243;28;20013;-69
2022/12/31 09:30:18;;;;;;;7.05;1.52;;;16.10;99.90;;;;;;5043121;28;20603;-70
2022/12/31 09:33:01;;;;;;;6.05;1.58;;;16.10;99.90;;;;;;5043177;28;20061;-70
2022/12/31 09:35:27;;;;;;;11.35;1.85;;;16.10;99.90;;;;;;5061084;28;20036;-70
2022/12/31 09:38:03;;;;;;;8.05;2.05;;;16.10;99.90;;;;;;5061049;28;20107;-70
2022/12/31 09:40:49;;;;;;;5.70;1.40;;;16.10;99.90;;;;;;5060800;28;20021;-70
2022/12/31 09:43:52;;;;;;;7.07;1.75;;;16.10;99.90;;;;;;5060631;28;20076;-70
2022/12/31 09:46:33;;;;;;;7.93;1.90;;;16.10;99.90;;;;;;5060628;28;20025;-70
2022/12/31 09:49:08;;;;;;;7.80;1.67;;;16.10;99.90;;;;;;5042832;28;20063;-69
2022/12/31 09:52:06;;;;;;;9.35;2.00;;;16.10;99.90;;;;;;5060568;28;20021;-69
2022/12/31 09:54:51;;;;;;;8.95;1.70;;;16.10;99.90;;;;;;5010090;28;20041;-70
2022/12/31 09:57:58;;;;;;;6.45;1.50;;;16.10;99.90;;;;;;5060735;28;20116;-69
2022/12/31 10:00:30;;;;;;;6.93;1.50;;;16.10;99.90;;;;;;4989106;28;20139;-69
2022/12/31 10:03:27;;;;;;;12.43;4.70;;;16.10;99.90;;;;;;5060150;28;20123;-69
2022/12/31 10:06:10;;;;;;;10.93;2.47;;;16.10;99.90;;;;;;5060433;28;20390;-70
2022/12/31 10:08:55;;;;;;;;;;;16.10;99.90;;;;;;5061020;28;20021;-70
2022/12/31 10:11:33;;;;;;;5.75;1.67;;;16.10;99.90;;;;;;5060116;28;19920;-69
2022/12/31 10:14:21;;;;;;;10.50;2.33;;;16.10;99.90;;;;;;5060133;28;20033;-70
2022/12/31 10:16:47;;;;;;;8.38;2.03;;;16.10;99.90;;;;;;5047869;28;20049;-70
2022/12/31 10:19:24;;;;;;;9.07;2.28;;;16.20;99.90;;;;;;5060102;28;20036;-70
2022/12/31 10:22:01;;;;;;;8.90;2.03;;;16.20;99.90;;;;;;5060007;28;20068;-70
2022/12/31 10:24:44;;;;;;;8.95;2.05;;;16.20;99.90;;;;;;5059987;28;20021;-70
2022/12/31 10:27:38;;;;;;;7.47;1.52;;;16.10;99.90;;;;;;5059976;28;20021;-70
2022/12/31 10:30:20;;;;;;;;;;;16.10;99.90;;;;;;5059279;28;20017;-70
2022/12/31 10:33:27;;;;;;;7.82;2.08;;;16.20;99.90;;;;;;5059885;28;19928;-67
2022/12/31 10:35:58;;;;;;;7.25;1.80;;;16.10;99.90;;;;;;4988640;28;20126;-70
2022/12/31 10:38:39;;;;;;;8.75;1.95;;;16.10;99.90;;;;;;5059733;28;20397;-70
2022/12/31 10:41:29;;;;;;;7.82;1.50;;;16.10;99.90;;;;;;5059627;28;20075;-70
2022/12/31 10:44:23;;;;;;;6.55;1.80;;;16.10;99.90;;;;;;5059839;28;20017;-69
2022/12/31 10:47:18;;;;;;;6.55;1.75;;;16.20;99.90;;;;;;5059192;28;20033;-69
2022/12/31 10:50:02;;;;;;;8.43;1.90;;;16.20;99.90;;;;;;5059605;28;20044;-70
2022/12/31 10:53:02;;;;;;;7.07;1.98;;;16.20;99.90;;;;;;5059862;28;20056;-69
2022/12/31 10:55:56;;;;;;;4.85;1.65;;;16.20;99.90;;;;;;5058650;28;20029;-70
2022/12/31 10:58:49;;;;;;;6.32;2.10;;;16.20;99.90;;;;;;5041702;28;20048;-70
2022/12/31 11:01:46;;;;;;;9.13;1.85;;;16.20;99.90;;;;;;5059411;28;20478;-68
2022/12/31 11:04:39;;;;;;;7.68;1.88;;;16.30;99.90;;;;;;5041489;28;20029;-70
2022/12/31 11:07:41;;;;;;;13.15;2.45;;;16.30;99.90;;;;;;5059398;28;20036;-70
2022/12/31 11:10:42;;;;;;;7.95;2.60;;;16.40;99.90;;;;;;5045873;28;20481;-70
2022/12/31 11:13:27;;;;;;;9.02;1.80;;;16.40;99.90;;;;;;5059315;28;20440;-70
2022/12/31 11:16:13;;;;;;;4.95;1.52;;;16.40;99.90;;;;;;5041284;28;20017;-70
2022/12/31 11:18:48;;;;;;;10.07;1.85;;;16.50;99.90;;;;;;5058972;28;20025;-70
2022/12/31 11:21:57;;;;;;;12.63;2.65;;;16.50;99.90;;;;;;5059190;28;20025;-70
2022/12/31 11:24:41;;;;;;;13.20;2.38;;;16.50;99.90;;;;;;5058512;28;20028;-70
2022/12/31 11:27:37;;;;;;;8.73;2.03;;;16.50;99.90;;;;;;5058903;28;20028;-70
2022/12/31 11:30:29;;;;;;;5.22;1.63;;;16.60;99.90;;;;;;5058833;28;20021;-70
2022/12/31 11:33:19;;;;;;;7.13;1.70;;;16.60;99.90;;;;;;5059009;28;20029;-70
2022/12/31 11:35:51;;;;;;;10.40;1.80;;;16.70;99.90;;;;;;5058792;28;20139;-70
2022/12/31 11:38:44;;;;;;;8.38;1.90;;;16.70;99.90;;;;;;5040790;28;20025;-70
2022/12/31 11:41:42;;;;;;;8.68;2.20;;;16.70;99.90;;;;;;5040324;28;20025;-69
2022/12/31 11:44:19;;;;;;;5.72;1.83;;;16.80;99.90;;;;;;5041150;28;20036;-69
2022/12/31 11:47:15;;;;;;;8.02;2.15;;;16.80;99.90;;;;;;5058602;28;20027;-70
2022/12/31 11:49:52;;;;;;;6.97;2.03;;;16.80;99.90;;;;;;5058392;28;20025;-70
2022/12/31 11:52:32;;;;;;;12.40;2.38;;;16.90;99.90;;;;;;5040535;28;20028;-69
2022/12/31 11:55:34;;;;;;;8.65;1.98;;;16.90;99.90;;;;;;5040209;28;20132;-69
2022/12/31 11:58:12;;;;;;;8.27;1.80;;;17.00;99.90;;;;;;5040414;28;20032;-70
2022/12/31 12:00:43;;;;;;;6.43;1.65;;;17.00;99.90;;;;;;5058240;28;20468;-70
2022/12/31 12:03:10;;;;;;;8.07;1.95;;;17.00;99.90;;;;;;5040539;28;20068;-69
2022/12/31 12:05:39;;;;;;;10.45;2.03;;;17.00;99.90;;;;;;5058130;28;20029;-69
2022/12/31 12:08:05;;;;;;;6.13;1.85;;;17.10;99.90;;;;;;5058288;28;20076;-69
2022/12/31 12:10:43;;;;;;;12.00;2.47;;;17.10;99.90;;;;;;5057727;28;20408;-69
2022/12/31 12:13:21;;;;;;;7.57;1.80;;;17.10;99.90;;;;;;5058137;28;20565;-69
2022/12/31 12:15:56;;;;;;;7.25;1.70;;;17.10;99.90;;;;;;5057969;28;20563;-69
2022/12/31 12:18:29;;;;;;;6.25;1.52;;;17.10;99.90;;;;;;5058025;28;20092;-69
2022/12/31 12:21:17;;;;;;;6.53;1.83;;;17.10;99.90;;;;;;5039975;28;20029;-69
2022/12/31 12:23:57;;;;;;;6.38;1.83;;;17.20;99.90;;;;;;5039883;28;20048;-69
2022/12/31 12:26:38;;;;;;;6.50;1.80;;;17.10;99.90;;;;;;5057916;28;20108;-69
2022/12/31 12:29:08;;;;;;;8.27;2.00;;;17.10;99.90;;;;;;5039861;28;20021;-69
2022/12/31 12:31:34;;;;;;;8.02;2.13;;;17.10;99.90;;;;;;5057739;28;20033;-69
2022/12/31 12:34:00;;;;;;;8.15;2.25;;;17.10;99.90;;;;;;5057815;28;20021;-69
2022/12/31 12:36:26;;;;;;;7.53;1.77;;;17.10;99.90;;;;;;5047669;28;20114;-69
2022/12/31 12:39:03;;;;;;;7.45;1.92;;;17.10;99.90;;;;;;5039637;28;20108;-69
2022/12/31 12:41:29;;;;;;;7.13;1.77;;;17.10;99.90;;;;;;5057589;28;20043;-69
2022/12/31 12:44:06;;;;;;;10.23;1.88;;;17.20;99.90;;;;;;5057582;28;20017;-69
2022/12/31 12:46:46;;;;;;;10.02;1.88;;;17.20;99.90;;;;;;5057651;28;20027;-68
2022/12/31 12:49:39;;;;;;;7.65;1.92;;;17.20;99.90;;;;;;5039597;28;20025;-69
2022/12/31 12:52:20;;;;;;;6.70;1.58;;;17.20;99.90;;;;;;5054324;28;20044;-69
2022/12/31 12:55:07;;;;;;;6.13;1.63;;;17.20;99.90;;;;;;5056992;28;20049;-69
2022/12/31 12:57:54;;;;;;;9.68;1.90;;;17.20;99.90;;;;;;5057392;28;20032;-69
2022/12/31 13:00:22;;;;;;;6.80;2.10;;;17.30;99.90;;;;;;5057442;28;20024;-69
2022/12/31 13:03:18;;;;;;;9.10;1.83;;;17.30;99.90;;;;;;5057051;28;20028;-69
2022/12/31 13:06:12;;;;;;;6.95;1.73;;;17.30;99.90;;;;;;5057385;28;20473;-69
2022/12/31 13:08:41;;;;;;;5.43;1.48;;;17.30;99.90;;;;;;5057412;28;20028;-69
2022/12/31 13:11:07;;;;;;;8.40;1.80;;;17.30;99.90;;;;;;5056972;28;20045;-69
2022/12/31 13:13:40;;;;;;;8.63;2.00;;;17.30;99.90;;;;;;5057177;28;20032;-69
2022/12/31 13:16:43;;;;;;;8.25;1.40;;;17.30;99.90;;;;;;5057296;28;20021;-69
2022/12/31 13:19:29;;;;;;;7.10;1.90;;;17.40;99.90;;;;;;5057320;28;20033;-69
2022/12/31 13:22:21;;;;;;;6.28;1.67;;;17.40;99.90;;;;;;5039075;28;20033;-69
2022/12/31 13:25:02;;;;;;;11.00;2.03;;;17.40;99.90;;;;;;5038909;28;20177;-69
2022/12/31 13:27:32;;;;;;;8.68;1.70;;;17.40;99.90;;;;;;5045282;28;20025;-69
2022/12/31 13:30:01;;;;;;;7.28;1.60;;;17.50;99.90;;;;;;5039103;28;20116;-69
2022/12/31 13:32:37;;;;;;;6.55;1.65;;;17.50;99.90;;;;;;5039038;28;20028;-69
2022/12/31 13:35:26;;;;;;;11.50;2.03;;;17.50;99.90;;;;;;5056954;28;20036;-70
2022/12/31 13:38:02;;;;;;;7.90;1.75;;;17.60;99.90;;;;;;5050982;28;20029;-69